Time;durP1;ratioP1;P1;durP2;ratioP2;P2;SDS_P1;SDS_P2;PMS_P1;PMS_P2;Temp;Humidity;BMP_temperature;BMP_pressure;BME280_temperature;BME280_humidity;BME280_pressure;Samples;Min_cycle;Max_cycle;Signal;HPM_P1;HPM_P2
2022/08/04 00:00:10;;;;;;;10.23;7.53;;;;;;;;;;5092867;28;20039;-65
2022/08/04 00:02:44;;;;;;;5.85;3.50;;;;;;;;;;5093040;28;20062;-65
2022/08/04 00:05:38;;;;;;;7.13;5.13;;;;;;;;;;5092651;28;20048;-65
2022/08/04 00:08:25;;;;;;;4.55;3.03;;;;;;;;;;5069721;28;20056;-65
2022/08/04 00:10:54;;;;;;;6.20;3.30;;;;;;;;;;5096437;28;20520;-65
2022/08/04 00:13:23;;;;;;;7.43;3.30;;;;;;;;;;5096001;28;20047;-65
2022/08/04 00:15:59;;;;;;;6.95;3.55;;;;;;;;;;5095974;28;20063;-65
2022/08/04 00:18:27;;;;;;;4.88;3.92;;;;;;;;;;5096344;28;20044;-65
2022/08/04 00:20:59;;;;;;;4.32;3.30;;;;;;;;;;5096250;28;20051;-65
2022/08/04 00:23:28;;;;;;;10.60;5.20;;;;;;;;;;5095730;28;20028;-65
2022/08/04 00:26:16;;;;;;;13.73;10.15;;;;;;;;;;5095695;28;20040;-65
2022/08/04 00:28:44;;;;;;;12.27;6.53;;;;;;;;;;5095519;28;20044;-66
2022/08/04 00:31:14;;;;;;;7.30;3.45;;;;;;;;;;5095291;28;20040;-65
2022/08/04 00:33:45;;;;;;;7.72;5.18;;;;;;;;;;5095748;28;20055;-66
2022/08/04 00:36:13;;;;;;;4.30;2.78;;;;;;;;;;5095723;28;20040;-65
2022/08/04 00:38:41;;;;;;;7.25;3.42;;;;;;;;;;5095681;28;20038;-65
2022/08/04 00:41:12;;;;;;;7.13;2.95;;;;;;;;;;5095477;28;20562;-65
2022/08/04 00:43:57;;;;;;;16.58;10.13;;;;;;;;;;5095392;28;20489;-65
2022/08/04 00:46:33;;;;;;;12.38;6.05;;;;;;;;;;5095252;28;20040;-66
2022/08/04 00:49:20;;;;;;;8.13;2.85;;;;;;;;;;5095280;28;20435;-65
2022/08/04 00:51:49;;;;;;;6.22;2.70;;;;;;;;;;5095194;28;20068;-66
2022/08/04 00:55:02;;;;;;;25.40;15.68;;;;;;;;;;5080287;28;20581;-66
2022/08/04 00:57:38;;;;;;;3.80;2.97;;;;;;;;;;5095071;28;20036;-65
2022/08/04 01:00:10;;;;;;;6.55;3.65;;;;;;;;;;5076919;28;20048;-66
2022/08/04 01:02:50;;;;;;;5.30;3.05;;;;;;;;;;5095259;28;20093;-66
2022/08/04 01:05:28;;;;;;;5.63;2.90;;;;;;;;;;5077042;28;20051;-66
2022/08/04 01:08:15;;;;;;;4.45;2.88;;;;;;;;;;5094648;28;20125;-66
2022/08/04 01:10:46;;;;;;;8.23;2.83;;;;;;;;;;5094803;28;20040;-66
2022/08/04 01:13:26;;;;;;;3.97;2.90;;;;;;;;;;5095342;28;20043;-66
2022/08/04 01:15:57;;;;;;;4.30;3.25;;;;;;;;;;5095239;28;20067;-66
2022/08/04 01:18:33;;;;;;;7.53;3.40;;;;;;;;;;5094795;28;20040;-66
2022/08/04 01:21:20;;;;;;;5.90;2.97;;;;;;;;;;5093868;28;20464;-66
2022/08/04 01:24:14;;;;;;;7.57;3.40;;;;;;;;;;5094590;28;20383;-66
2022/08/04 01:26:45;;;;;;;10.93;3.70;;;;;;;;;;5092197;28;20087;-66
2022/08/04 01:29:26;;;;;;;6.18;3.40;;;;;;;;;;5078479;28;20036;-66
2022/08/04 01:32:12;;;;;;;8.02;3.72;;;;;;;;;;5094568;28;20066;-66
2022/08/04 01:34:42;;;;;;;6.15;3.40;;;;;;;;;;5094524;28;20040;-66
2022/08/04 01:37:09;;;;;;;10.02;3.85;;;;;;;;;;5094615;28;20119;-66
2022/08/04 01:39:57;;;;;;;7.28;3.75;;;;;;;;;;5094912;28;20040;-66
2022/08/04 01:42:25;;;;;;;7.22;3.40;;;;;;;;;;5094558;28;20053;-66
2022/08/04 01:45:02;;;;;;;6.93;3.83;;;;;;;;;;5077328;28;20109;-65
2022/08/04 01:47:30;;;;;;;8.13;3.63;;;;;;;;;;5094221;28;20127;-66
2022/08/04 01:50:03;;;;;;;9.63;3.63;;;;;;;;;;5094377;28;20500;-66
2022/08/04 01:52:31;;;;;;;4.80;3.40;;;;;;;;;;5094196;28;20044;-65
2022/08/04 01:54:59;;;;;;;7.75;3.20;;;;;;;;;;5075885;28;20044;-66
2022/08/04 01:57:27;;;;;;;6.55;3.60;;;;;;;;;;5094102;28;20114;-66
2022/08/04 02:00:06;;;;;;;6.82;3.45;;;;;;;;;;5093893;28;20072;-65
2022/08/04 02:02:33;;;;;;;7.90;3.50;;;;;;;;;;5093699;28;20039;-66
2022/08/04 02:05:01;;;;;;;7.85;3.67;;;;;;;;;;5093550;28;20040;-66
2022/08/04 02:07:44;;;;;;;6.22;4.13;;;;;;;;;;5093574;28;20046;-66
2022/08/04 02:10:27;;;;;;;10.68;6.20;;;;;;;;;;5093604;28;20051;-66
2022/08/04 02:13:01;;;;;;;6.20;4.00;;;;;;;;;;5093741;28;20036;-66
2022/08/04 02:15:37;;;;;;;6.13;3.58;;;;;;;;;;5093581;28;20046;-66
2022/08/04 02:18:12;;;;;;;7.00;3.75;;;;;;;;;;5093541;28;20058;-66
2022/08/04 02:20:44;;;;;;;7.97;3.90;;;;;;;;;;5093404;28;20032;-66
2022/08/04 02:23:15;;;;;;;7.13;4.07;;;;;;;;;;5093450;28;20074;-66
2022/08/04 02:25:46;;;;;;;6.55;4.10;;;;;;;;;;5093406;28;20085;-66
2022/08/04 02:28:26;;;;;;;5.70;3.97;;;;;;;;;;5093403;28;20151;-66
2022/08/04 02:30:57;;;;;;;6.05;4.10;;;;;;;;;;5093375;28;20056;-66
2022/08/04 02:33:31;;;;;;;4.68;3.75;;;;;;;;;;5092455;28;20036;-66
2022/08/04 02:36:01;;;;;;;5.72;3.83;;;;;;;;;;5093296;28;20378;-66
2022/08/04 02:38:37;;;;;;;6.50;3.80;;;;;;;;;;5093273;28;20070;-66
2022/08/04 02:41:05;;;;;;;7.95;4.35;;;;;;;;;;5093920;28;20485;-66
2022/08/04 02:43:35;;;;;;;6.22;3.70;;;;;;;;;;5093595;28;20363;-66
2022/08/04 02:46:19;;;;;;;7.68;3.65;;;;;;;;;;5093189;28;20558;-66
2022/08/04 02:48:48;;;;;;;9.05;5.68;;;;;;;;;;5092907;28;20036;-66
2022/08/04 02:51:19;;;;;;;8.73;5.28;;;;;;;;;;5093137;28;20035;-66
2022/08/04 02:53:49;;;;;;;15.60;10.90;;;;;;;;;;5092987;28;20044;-66
2022/08/04 02:56:19;;;;;;;12.80;7.65;;;;;;;;;;5093121;28;20448;-66
2022/08/04 02:58:50;;;;;;;8.35;4.22;;;;;;;;;;5092941;28;20036;-66
2022/08/04 03:01:18;;;;;;;12.10;5.35;;;;;;;;;;5092957;28;20066;-66
2022/08/04 03:03:48;;;;;;;9.50;4.25;;;;;;;;;;5093101;28;20587;-66
2022/08/04 03:06:16;;;;;;;11.73;4.70;;;;;;;;;;5074718;28;20048;-66
2022/08/04 03:09:02;;;;;;;6.95;4.40;;;;;;;;;;5092626;28;20062;-66
2022/08/04 03:11:29;;;;;;;10.52;4.50;;;;;;;;;;5092770;28;20052;-66
2022/08/04 03:14:29;;;;;;;10.75;4.40;;;;;;;;;;5092720;28;20043;-66
2022/08/04 03:17:15;;;;;;;7.60;4.03;;;;;;;;;;5059061;28;20052;-66
2022/08/04 03:20:01;;;;;;;7.93;4.03;;;;;;;;;;5092575;28;20075;-66
2022/08/04 03:22:47;;;;;;;8.95;4.60;;;;;;;;;;5092823;28;20056;-66
2022/08/04 03:26:05;;;;;;;9.32;4.00;;;;;;;;;;5092653;28;20085;-66
2022/08/04 03:28:48;;;;;;;8.18;4.40;;;;;;;;;;5092631;28;20054;-66
2022/08/04 03:31:21;;;;;;;7.75;3.85;;;;;;;;;;5074440;28;20048;-66
2022/08/04 03:33:55;;;;;;;7.35;4.60;;;;;;;;;;5092598;28;20040;-66
2022/08/04 03:36:23;;;;;;;8.55;3.83;;;;;;;;;;5092573;28;20044;-66
2022/08/04 03:39:01;;;;;;;5.60;4.15;;;;;;;;;;5075958;28;20032;-66
2022/08/04 03:41:48;;;;;;;9.77;6.53;;;;;;;;;;5074478;28;20130;-66
2022/08/04 03:44:34;;;;;;;18.75;6.32;;;;;;;;;;5095164;28;20067;-66
2022/08/04 03:47:01;;;;;;;11.60;4.90;;;;;;;;;;5096146;28;20123;-66
2022/08/04 03:49:29;;;;;;;8.07;4.25;;;;;;;;;;5095752;28;20040;-66
2022/08/04 03:55:01;;;;;;;8.70;4.15;;;;;;;;;;5096072;28;20490;-66
2022/08/04 03:57:28;;;;;;;13.80;8.02;;;;;;;;;;5096428;28;20044;-66
2022/08/04 03:59:56;;;;;;;22.70;10.93;;;;;;;;;;5095959;28;20048;-66
2022/08/04 04:02:32;;;;;;;25.13;15.60;;;;;;;;;;5095981;28;20036;-66
2022/08/04 04:05:00;;;;;;;25.92;17.88;;;;;;;;;;5095913;28;20554;-66
2022/08/04 04:07:48;;;;;;;33.80;21.60;;;;;;;;;;5096273;28;20044;-66
2022/08/04 04:10:46;;;;;;;21.75;14.93;;;;;;;;;;5077988;28;20489;-66
2022/08/04 04:13:32;;;;;;;20.58;12.27;;;;;;;;;;5095971;28;20089;-66
2022/08/04 04:16:05;;;;;;;23.55;15.27;;;;;;;;;;5095774;28;20043;-66
2022/08/04 04:18:42;;;;;;;15.05;8.88;;;;;;;;;;5095670;28;20047;-66
2022/08/04 04:21:18;;;;;;;18.75;10.70;;;;;;;;;;5078050;28;20539;-67
2022/08/04 04:24:01;;;;;;;33.80;19.80;;;;;;;;;;5095637;28;20044;-67
2022/08/04 04:26:40;;;;;;;32.70;20.73;;;;;;;;;;5095436;28;20052;-66
2022/08/04 04:29:14;;;;;;;22.52;13.48;;;;;;;;;;5094070;28;20066;-66
2022/08/04 04:31:48;;;;;;;16.73;10.70;;;;;;;;;;5093732;28;20044;-66
2022/08/04 04:34:39;;;;;;;7.07;4.03;;;;;;;;;;5094215;28;20338;-66
2022/08/04 04:37:17;;;;;;;11.65;7.43;;;;;;;;;;5094854;28;20044;-67
2022/08/04 04:39:45;;;;;;;12.30;4.18;;;;;;;;;;5094433;28;20041;-67
2022/08/04 04:42:25;;;;;;;12.40;6.63;;;;;;;;;;5094976;28;20051;-67
2022/08/04 04:45:03;;;;;;;10.80;4.28;;;;;;;;;;5095109;28;20093;-67
2022/08/04 04:47:40;;;;;;;23.85;13.32;;;;;;;;;;5095306;28;20047;-66
2022/08/04 04:50:33;;;;;;;9.52;4.35;;;;;;;;;;5095250;28;20044;-65
2022/08/04 04:53:26;;;;;;;11.35;4.72;;;;;;;;;;5094802;28;20444;-65
2022/08/04 04:55:59;;;;;;;24.83;13.25;;;;;;;;;;5056490;28;20094;-66
2022/08/04 04:58:27;;;;;;;13.88;7.43;;;;;;;;;;5094974;28;20068;-66
2022/08/04 05:01:06;;;;;;;9.55;5.68;;;;;;;;;;5094928;28;20044;-66
2022/08/04 05:03:52;;;;;;;12.63;7.45;;;;;;;;;;5095310;28;20123;-66
2022/08/04 05:06:23;;;;;;;10.68;8.02;;;;;;;;;;5091808;28;20115;-66
2022/08/04 05:09:07;;;;;;;6.50;4.60;;;;;;;;;;5093564;28;20048;-66
2022/08/04 05:11:37;;;;;;;9.52;4.53;;;;;;;;;;5091807;28;20457;-66
2022/08/04 05:14:11;;;;;;;13.20;5.47;;;;;;;;;;5094391;28;20048;-66
2022/08/04 05:17:10;;;;;;;11.43;3.90;;;;;;;;;;5094581;28;20036;-66
2022/08/04 05:19:38;;;;;;;11.63;5.22;;;;;;;;;;5094590;28;20044;-67
2022/08/04 05:22:17;;;;;;;6.32;3.83;;;;;;;;;;5094755;28;20040;-66
2022/08/04 05:24:47;;;;;;;9.80;4.22;;;;;;;;;;5094431;28;20089;-67
2022/08/04 05:27:28;;;;;;;7.57;3.50;;;;;;;;;;5076738;28;20517;-66
2022/08/04 05:29:58;;;;;;;5.75;3.78;;;;;;;;;;5076211;28;20040;-67
2022/08/04 05:32:27;;;;;;;7.25;3.45;;;;;;;;;;5094343;28;20127;-66
2022/08/04 05:34:58;;;;;;;5.18;3.75;;;;;;;;;;5094496;28;20366;-67
2022/08/04 05:37:26;;;;;;;8.63;3.80;;;;;;;;;;5094153;28;20054;-67
2022/08/04 05:39:57;;;;;;;7.70;2.97;;;;;;;;;;5094070;28;20499;-67
2022/08/04 05:42:25;;;;;;;8.75;3.58;;;;;;;;;;5094060;28;20044;-67
2022/08/04 05:44:54;;;;;;;7.70;3.05;;;;;;;;;;5093985;28;20071;-67
2022/08/04 05:47:22;;;;;;;10.27;2.90;;;;;;;;;;5076373;28;20040;-67
2022/08/04 05:49:50;;;;;;;6.35;2.80;;;;;;;;;;5093936;28;20044;-67
2022/08/04 05:52:27;;;;;;;6.47;2.30;;;;;;;;;;5077515;28;20056;-66
2022/08/04 05:54:56;;;;;;;7.03;2.80;;;;;;;;;;5092119;28;20051;-66
2022/08/04 05:57:25;;;;;;;3.53;2.35;;;;;;;;;;5092537;28;20048;-67
2022/08/04 05:59:55;;;;;;;4.60;2.60;;;;;;;;;;5092727;28;20101;-67
2022/08/04 06:02:23;;;;;;;4.75;2.47;;;;;;;;;;5094011;28;20051;-67
2022/08/04 06:04:52;;;;;;;3.80;2.30;;;;;;;;;;5093493;28;20044;-66
2022/08/04 06:07:19;;;;;;;3.33;2.38;;;;;;;;;;5093364;28;20043;-67
2022/08/04 06:09:47;;;;;;;7.65;3.97;;;;;;;;;;5093533;28;20036;-67
2022/08/04 06:12:19;;;;;;;8.70;4.45;;;;;;;;;;5093604;28;20425;-67
2022/08/04 06:14:49;;;;;;;4.22;2.92;;;;;;;;;;5075484;28;20115;-66
2022/08/04 06:17:25;;;;;;;4.18;2.67;;;;;;;;;;5093474;28;20389;-67
2022/08/04 06:20:14;;;;;;;4.10;2.53;;;;;;;;;;5093452;28;20036;-66
2022/08/04 06:22:56;;;;;;;4.85;2.35;;;;;;;;;;5093370;28;20048;-66
2022/08/04 06:25:26;;;;;;;3.58;2.20;;;;;;;;;;5093366;28;20047;-66
2022/08/04 06:27:54;;;;;;;4.75;2.40;;;;;;;;;;5093246;28;20497;-66
2022/08/04 06:30:25;;;;;;;4.28;2.20;;;;;;;;;;5093382;28;20047;-67
2022/08/04 06:32:59;;;;;;;3.63;2.33;;;;;;;;;;5093133;28;20379;-67
2022/08/04 06:35:32;;;;;;;5.78;2.22;;;;;;;;;;5093202;28;20517;-67
2022/08/04 06:37:59;;;;;;;7.97;2.63;;;;;;;;;;5093130;28;20043;-66
2022/08/04 06:40:28;;;;;;;4.60;2.70;;;;;;;;;;5092940;28;20089;-67
2022/08/04 06:43:04;;;;;;;4.00;2.40;;;;;;;;;;5093035;28;20048;-66
2022/08/04 06:45:33;;;;;;;7.18;2.25;;;;;;;;;;5092914;28;20111;-67
2022/08/04 06:48:02;;;;;;;6.90;2.33;;;;;;;;;;5092756;28;20040;-67
2022/08/04 06:50:29;;;;;;;3.58;2.50;;;;;;;;;;5092946;28;20083;-67
2022/08/04 06:53:17;;;;;;;3.13;2.33;;;;;;;;;;5092604;28;20486;-67
2022/08/04 06:55:46;;;;;;;3.60;2.05;;;;;;;;;;5092744;28;20047;-67
2022/08/04 06:58:15;;;;;;;3.00;2.25;;;;;;;;;;5092672;28;20051;-67
2022/08/04 07:00:44;;;;;;;4.10;2.47;;;;;;;;;;5092531;28;20044;-67
2022/08/04 07:03:11;;;;;;;4.55;2.30;;;;;;;;;;5074558;28;20051;-67
2022/08/04 07:05:40;;;;;;;5.22;2.67;;;;;;;;;;5092728;28;20036;-67
2022/08/04 07:08:09;;;;;;;4.57;2.35;;;;;;;;;;5092688;28;20039;-67
2022/08/04 07:10:37;;;;;;;5.78;2.63;;;;;;;;;;5092532;28;20153;-67
2022/08/04 07:13:06;;;;;;;3.70;2.78;;;;;;;;;;5092694;28;20040;-67
2022/08/04 07:15:35;;;;;;;10.82;3.60;;;;;;;;;;5092501;28;20040;-67
2022/08/04 07:18:03;;;;;;;5.80;3.20;;;;;;;;;;5092607;28;20109;-67
2022/08/04 07:20:31;;;;;;;5.38;2.70;;;;;;;;;;5096481;28;20051;-67
2022/08/04 07:23:06;;;;;;;6.97;2.20;;;;;;;;;;5096497;28;20047;-67
2022/08/04 07:25:35;;;;;;;3.13;2.05;;;;;;;;;;5096926;28;20040;-67
2022/08/04 07:28:32;;;;;;;4.72;2.40;;;;;;;;;;5096611;28;20462;-67
2022/08/04 07:31:01;;;;;;;2.92;2.08;;;;;;;;;;5096427;28;20547;-67
2022/08/04 07:33:29;;;;;;;3.65;2.20;;;;;;;;;;5096504;28;20032;-67
2022/08/04 07:35:57;;;;;;;3.67;2.50;;;;;;;;;;5077991;28;20461;-67
2022/08/04 07:38:41;;;;;;;3.33;2.10;;;;;;;;;;5096363;28;20040;-67
2022/08/04 07:41:24;;;;;;;2.80;2.22;;;;;;;;;;5096175;28;20134;-67
2022/08/04 07:44:12;;;;;;;3.55;2.05;;;;;;;;;;5096192;28;20387;-67
2022/08/04 07:46:40;;;;;;;5.78;2.03;;;;;;;;;;5096286;28;20136;-67
2022/08/04 07:49:08;;;;;;;3.05;2.00;;;;;;;;;;5096351;28;20114;-66
2022/08/04 07:51:36;;;;;;;4.65;2.28;;;;;;;;;;5096175;28;20043;-66
2022/08/04 07:54:06;;;;;;;2.20;2.00;;;;;;;;;;5096015;28;20059;-66
2022/08/04 07:56:35;;;;;;;2.70;2.00;;;;;;;;;;5096042;28;20059;-66
2022/08/04 07:59:04;;;;;;;3.25;2.00;;;;;;;;;;5096126;28;20040;-66
2022/08/04 08:01:32;;;;;;;5.53;2.22;;;;;;;;;;5078051;28;20123;-67
2022/08/04 08:03:59;;;;;;;2.78;2.08;;;;;;;;;;5095982;28;20044;-66
2022/08/04 08:06:28;;;;;;;3.90;1.90;;;;;;;;;;5095922;28;20040;-66
2022/08/04 08:09:01;;;;;;;6.50;2.63;;;;;;;;;;5096010;28;20036;-66
2022/08/04 08:11:44;;;;;;;6.00;2.00;;;;;;;;;;5095793;28;20061;-66
2022/08/04 08:14:33;;;;;;;3.72;2.03;;;;;;;;;;5095856;28;20512;-65
2022/08/04 08:17:02;;;;;;;5.55;4.20;;;;;;;;;;5095858;28;20435;-65
2022/08/04 08:19:30;;;;;;;3.30;2.45;;;;;;;;;;5095959;28;20055;-65
2022/08/04 08:21:59;;;;;;;3.97;1.85;;;;;;;;;;5095741;28;20489;-65
2022/08/04 08:24:28;;;;;;;6.72;2.42;;;;;;;;;;5095621;28;20079;-65
2022/08/04 08:26:56;;;;;;;2.50;2.20;;;;;;;;;;5095548;28;20531;-65
2022/08/04 08:29:25;;;;;;;7.57;4.85;;;;;;;;;;5077587;28;20078;-65
2022/08/04 08:31:53;;;;;;;6.93;3.00;;;;;;;;;;5095557;28;20394;-65
2022/08/04 08:34:26;;;;;;;3.88;2.60;;;;;;;;;;5095348;28;20052;-65
2022/08/04 08:37:15;;;;;;;3.70;1.92;;;;;;;;;;5095268;28;20040;-65
2022/08/04 08:40:01;;;;;;;3.85;2.35;;;;;;;;;;5095311;28;20067;-66
2022/08/04 08:42:35;;;;;;;3.05;1.95;;;;;;;;;;5076910;28;20463;-66
2022/08/04 08:45:02;;;;;;;;;;;;;;;;;;5095712;28;20043;-66
2022/08/04 08:47:30;;;;;;;3.47;1.75;;;;;;;;;;5095168;28;20321;-66
2022/08/04 08:50:24;;;;;;;2.67;2.20;;;;;;;;;;5095053;28;20041;-65
2022/08/04 08:52:59;;;;;;;12.25;9.43;;;;;;;;;;5094837;28;20522;-66
2022/08/04 08:55:34;;;;;;;4.85;2.50;;;;;;;;;;5094944;28;20101;-65
2022/08/04 08:58:02;;;;;;;2.47;2.28;;;;;;;;;;5076729;28;20083;-66
2022/08/04 09:00:32;;;;;;;3.10;2.00;;;;;;;;;;5094995;28;20059;-66
2022/08/04 09:03:19;;;;;;;3.42;2.50;;;;;;;;;;5094870;28;20078;-66
2022/08/04 09:05:46;;;;;;;4.43;2.13;;;;;;;;;;5094887;28;20044;-66
2022/08/04 09:08:23;;;;;;;3.25;1.95;;;;;;;;;;5094639;28;20040;-66
2022/08/04 09:10:53;;;;;;;2.28;2.00;;;;;;;;;;5095028;28;20067;-66
2022/08/04 09:13:26;;;;;;;2.67;2.10;;;;;;;;;;5094570;28;20489;-65
2022/08/04 09:16:03;;;;;;;4.68;2.30;;;;;;;;;;5094593;28;20082;-66
2022/08/04 09:18:36;;;;;;;2.88;2.03;;;;;;;;;;5094634;28;20074;-65
2022/08/04 09:21:09;;;;;;;5.68;2.40;;;;;;;;;;5093994;28;20036;-65
2022/08/04 09:23:46;;;;;;;3.35;2.17;;;;;;;;;;5094386;28;20055;-66
2022/08/04 09:26:13;;;;;;;;;;;;;;;;;;5094691;28;20051;-66
2022/08/04 09:28:47;;;;;;;2.72;2.20;;;;;;;;;;5094080;28;19943;-65
2022/08/04 09:31:23;;;;;;;3.28;2.70;;;;;;;;;;5094054;28;20105;-65
2022/08/04 09:33:59;;;;;;;8.95;4.50;;;;;;;;;;5094082;28;20042;-65
2022/08/04 09:36:30;;;;;;;8.45;3.90;;;;;;;;;;5093939;28;20040;-66
2022/08/04 09:38:57;;;;;;;6.00;3.20;;;;;;;;;;5094039;28;20742;-66
2022/08/04 09:41:29;;;;;;;3.33;2.10;;;;;;;;;;5075286;28;20150;-65
2022/08/04 09:44:16;;;;;;;5.93;2.40;;;;;;;;;;5093964;28;20397;-65
2022/08/04 09:47:07;;;;;;;2.00;1.90;;;;;;;;;;5093930;28;20122;-66
2022/08/04 09:49:48;;;;;;;6.80;2.17;;;;;;;;;;5075973;28;20052;-66
2022/08/04 09:52:16;;;;;;;4.93;2.20;;;;;;;;;;5093615;28;20036;-67
2022/08/04 09:54:43;;;;;;;4.25;2.05;;;;;;;;;;5093690;28;20119;-67
2022/08/04 09:57:17;;;;;;;4.10;2.05;;;;;;;;;;5075465;28;20040;-66
2022/08/04 09:59:45;;;;;;;;;;;;;;;;;;5087439;28;20044;-66
2022/08/04 10:02:17;;;;;;;3.58;2.53;;;;;;;;;;5093508;28;19931;-66
2022/08/04 10:04:45;;;;;;;3.00;2.50;;;;;;;;;;5093521;28;20054;-66
2022/08/04 10:07:31;;;;;;;4.35;2.50;;;;;;;;;;5093512;28;20040;-67
2022/08/04 10:10:17;;;;;;;3.00;2.20;;;;;;;;;;5093866;28;20425;-66
2022/08/04 10:13:11;;;;;;;3.25;2.53;;;;;;;;;;5093480;28;20047;-66
2022/08/04 10:15:57;;;;;;;6.03;3.92;;;;;;;;;;5091087;28;20064;-66
2022/08/04 10:18:29;;;;;;;9.75;6.82;;;;;;;;;;5093653;28;20439;-65
2022/08/04 10:21:06;;;;;;;6.57;4.00;;;;;;;;;;5092594;28;20032;-66
2022/08/04 10:24:00;;;;;;;6.22;2.85;;;;;;;;;;5093223;28;20058;-65
2022/08/04 10:26:38;;;;;;;3.05;2.58;;;;;;;;;;5093265;28;20122;-64
2022/08/04 10:29:14;;;;;;;3.22;2.13;;;;;;;;;;5092728;28;20093;-65
2022/08/04 10:31:48;;;;;;;5.10;2.38;;;;;;;;;;5092998;28;20047;-65
2022/08/04 10:34:24;;;;;;;4.15;2.17;;;;;;;;;;5092902;28;20486;-65
2022/08/04 10:37:10;;;;;;;5.93;2.67;;;;;;;;;;5092846;28;20490;-65
2022/08/04 10:40:35;;;;;;;2.67;2.47;;;;;;;;;;5092281;28;20509;-65
2022/08/04 10:42:36;;;;;;;4.35;2.40;;;;;;;;;;5091463;28;20036;-65
2022/08/04 10:45:15;;;;;;;4.53;2.28;;;;;;;;;;5092244;28;20043;-65
2022/08/04 10:47:51;;;;;;;3.85;2.70;;;;;;;;;;5090222;28;20036;-66
2022/08/04 10:50:21;;;;;;;6.22;3.08;;;;;;;;;;5089611;28;20072;-65
2022/08/04 10:52:55;;;;;;;2.47;2.28;;;;;;;;;;5091656;28;20044;-62
2022/08/04 10:55:34;;;;;;;2.50;2.30;;;;;;;;;;5074841;28;20311;-64
2022/08/04 10:58:29;;;;;;;3.53;2.58;;;;;;;;;;5092870;28;20044;-64
2022/08/04 11:01:35;;;;;;;3.80;3.03;;;;;;;;;;5092789;28;20036;-64
2022/08/04 11:04:30;;;;;;;3.65;2.45;;;;;;;;;;5092882;28;20047;-63
2022/08/04 11:06:59;;;;;;;4.80;2.90;;;;;;;;;;5092654;28;20036;-64
2022/08/04 11:09:28;;;;;;;52.40;5.10;;;;;;;;;;5092580;28;20425;-66
2022/08/04 11:11:58;;;;;;;3.10;2.40;;;;;;;;;;5071263;28;20136;-65
2022/08/04 11:14:35;;;;;;;4.47;2.85;;;;;;;;;;5092742;28;20138;-66
2022/08/04 11:17:06;;;;;;;5.82;3.20;;;;;;;;;;5058569;28;20044;-66
2022/08/04 11:19:40;;;;;;;2.50;2.10;;;;;;;;;;5091624;28;20050;-66
2022/08/04 11:22:23;;;;;;;3.30;2.40;;;;;;;;;;5092115;28;20545;-66
2022/08/04 11:24:50;;;;;;;5.45;2.85;;;;;;;;;;5092025;28;20063;-66
2022/08/04 11:27:27;;;;;;;8.13;2.50;;;;;;;;;;5060862;28;20052;-66
2022/08/04 11:30:04;;;;;;;5.28;2.10;;;;;;;;;;5092098;28;20059;-66
2022/08/04 11:32:34;;;;;;;7.72;2.50;;;;;;;;;;5092351;28;20074;-66
2022/08/04 11:35:03;;;;;;;3.75;2.30;;;;;;;;;;5091833;28;20118;-66
2022/08/04 11:37:51;;;;;;;2.50;2.30;;;;;;;;;;5091598;28;20036;-66
2022/08/04 11:40:28;;;;;;;5.75;2.50;;;;;;;;;;5091877;28;20046;-65
2022/08/04 11:43:00;;;;;;;3.08;2.40;;;;;;;;;;5092283;28;20542;-65
2022/08/04 11:45:36;;;;;;;8.45;2.70;;;;;;;;;;5092020;28;20040;-65
2022/08/04 11:48:08;;;;;;;5.75;3.17;;;;;;;;;;5092272;28;20085;-65
2022/08/04 11:50:43;;;;;;;2.92;2.10;;;;;;;;;;5092227;28;20040;-65
2022/08/04 11:53:15;;;;;;;6.00;2.75;;;;;;;;;;5092227;28;20109;-65
2022/08/04 11:55:45;;;;;;;5.72;2.88;;;;;;;;;;5092161;28;20111;-65
2022/08/04 11:58:32;;;;;;;4.75;2.20;;;;;;;;;;5091845;28;20044;-65
2022/08/04 12:01:00;;;;;;;3.78;2.53;;;;;;;;;;5092409;28;20036;-65
2022/08/04 12:03:42;;;;;;;3.35;2.22;;;;;;;;;;5092131;28;20486;-65
2022/08/04 12:06:32;;;;;;;3.53;2.30;;;;;;;;;;5095878;28;20047;-65
2022/08/04 12:09:08;;;;;;;6.03;2.40;;;;;;;;;;5077932;28;20064;-64
2022/08/04 12:12:00;;;;;;;4.32;3.70;;;;;;;;;;5095857;28;20040;-65
2022/08/04 12:14:33;;;;;;;6.03;2.55;;;;;;;;;;5095933;28;20040;-64
2022/08/04 12:17:02;;;;;;;3.95;2.85;;;;;;;;;;5095781;28;20486;-65
2022/08/04 12:19:32;;;;;;;4.72;3.42;;;;;;;;;;5095917;28;20067;-66
2022/08/04 12:22:24;;;;;;;4.32;2.63;;;;;;;;;;5095590;28;20040;-66
2022/08/04 12:25:05;;;;;;;3.38;2.75;;;;;;;;;;5095390;28;20118;-66
2022/08/04 12:27:34;;;;;;;5.20;2.40;;;;;;;;;;5095300;28;20040;-66
2022/08/04 12:30:03;;;;;;;5.28;2.20;;;;;;;;;;5095480;28;20048;-66
2022/08/04 12:32:56;;;;;;;6.00;2.30;;;;;;;;;;5095660;28;20474;-65
2022/08/04 12:35:27;;;;;;;5.32;4.10;;;;;;;;;;5095388;28;20482;-65
2022/08/04 12:38:01;;;;;;;7.32;2.95;;;;;;;;;;5095124;28;20089;-66
2022/08/04 12:40:33;;;;;;;4.85;2.65;;;;;;;;;;5095308;28;20040;-65
2022/08/04 12:43:21;;;;;;;4.70;2.60;;;;;;;;;;5095602;28;20044;-65
2022/08/04 12:45:49;;;;;;;7.43;3.38;;;;;;;;;;5095368;28;20385;-65
2022/08/04 12:48:18;;;;;;;4.60;2.55;;;;;;;;;;5095280;28;20110;-65
2022/08/04 12:50:55;;;;;;;4.88;2.80;;;;;;;;;;5095085;28;20115;-65
2022/08/04 12:53:28;;;;;;;2.60;2.28;;;;;;;;;;5076732;28;20079;-65
2022/08/04 12:55:59;;;;;;;6.60;5.05;;;;;;;;;;5094774;28;20115;-66
2022/08/04 12:58:29;;;;;;;4.65;2.65;;;;;;;;;;5094889;28;20040;-66
2022/08/04 13:01:17;;;;;;;3.15;2.40;;;;;;;;;;5094789;28;20036;-66
2022/08/04 13:04:19;;;;;;;2.42;2.17;;;;;;;;;;5094619;28;20040;-65
2022/08/04 13:06:57;;;;;;;3.30;2.22;;;;;;;;;;5076770;28;20540;-65
2022/08/04 13:09:27;;;;;;;4.85;3.30;;;;;;;;;;5094630;28;20032;-66
2022/08/04 13:12:01;;;;;;;3.95;2.30;;;;;;;;;;5094450;28;20039;-65
2022/08/04 13:14:31;;;;;;;4.10;2.75;;;;;;;;;;5077073;28;20044;-66
2022/08/04 13:17:00;;;;;;;5.47;4.95;;;;;;;;;;5093351;28;20435;-66
2022/08/04 13:19:30;;;;;;;7.80;5.90;;;;;;;;;;5093813;28;20042;-67
2022/08/04 13:22:08;;;;;;;3.28;2.58;;;;;;;;;;5094602;28;20059;-66
2022/08/04 13:24:37;;;;;;;3.13;2.53;;;;;;;;;;5094390;28;20039;-66
2022/08/04 13:27:24;;;;;;;2.70;2.40;;;;;;;;;;5093648;28;20463;-66
2022/08/04 13:29:55;;;;;;;3.53;2.55;;;;;;;;;;5076580;28;20062;-65
2022/08/04 13:32:30;;;;;;;4.80;3.17;;;;;;;;;;5094345;28;20568;-65
2022/08/04 13:35:00;;;;;;;3.42;2.20;;;;;;;;;;5090268;28;20059;-65
2022/08/04 13:37:34;;;;;;;5.68;3.00;;;;;;;;;;5094049;28;20046;-65
2022/08/04 13:40:03;;;;;;;10.70;2.55;;;;;;;;;;5093970;28;21186;-65
2022/08/04 13:42:33;;;;;;;4.75;2.60;;;;;;;;;;5093847;28;20073;-65
2022/08/04 13:45:04;;;;;;;4.13;2.50;;;;;;;;;;5092167;28;20490;-64
2022/08/04 13:47:33;;;;;;;4.95;2.50;;;;;;;;;;5093833;28;20043;-64
2022/08/04 13:50:16;;;;;;;5.05;3.22;;;;;;;;;;5093714;28;20036;-64
2022/08/04 13:52:46;;;;;;;3.72;2.50;;;;;;;;;;5093421;28;20486;-64
2022/08/04 13:55:21;;;;;;;3.45;2.72;;;;;;;;;;5093618;28;20032;-64
2022/08/04 13:57:50;;;;;;;4.55;3.40;;;;;;;;;;5093629;28;20055;-65
2022/08/04 14:00:18;;;;;;;5.85;2.80;;;;;;;;;;5093576;28;20051;-64
2022/08/04 14:03:02;;;;;;;3.47;2.30;;;;;;;;;;5093311;28;20048;-65
2022/08/04 14:06:08;;;;;;;5.32;3.00;;;;;;;;;;5093644;28;20165;-65
2022/08/04 14:08:43;;;;;;;4.40;2.78;;;;;;;;;;5075142;28;20044;-65
2022/08/04 14:11:10;;;;;;;4.82;2.95;;;;;;;;;;5093254;28;20064;-65
2022/08/04 14:13:58;;;;;;;4.72;2.47;;;;;;;;;;5093132;28;20044;-65
2022/08/04 14:16:26;;;;;;;4.72;3.83;;;;;;;;;;5093090;28;20067;-66
2022/08/04 14:19:00;;;;;;;3.45;2.50;;;;;;;;;;5074912;28;20143;-65
2022/08/04 14:21:28;;;;;;;4.63;2.47;;;;;;;;;;5093217;28;20032;-65
2022/08/04 14:23:56;;;;;;;3.83;2.65;;;;;;;;;;5092925;28;20526;-65
2022/08/04 14:26:24;;;;;;;7.43;3.33;;;;;;;;;;5093250;28;20102;-64
2022/08/04 14:29:13;;;;;;;10.18;4.32;;;;;;;;;;5092888;28;20044;-65
2022/08/04 14:32:00;;;;;;;8.68;5.55;;;;;;;;;;5092590;28;20493;-66
2022/08/04 14:34:30;;;;;;;6.45;3.75;;;;;;;;;;5068466;28;20074;-64
2022/08/04 14:37:07;;;;;;;5.80;4.13;;;;;;;;;;5087501;28;20048;-65
2022/08/04 14:39:47;;;;;;;5.25;3.60;;;;;;;;;;5072913;28;20097;-65
2022/08/04 14:42:42;;;;;;;8.85;2.70;;;;;;;;;;5086660;28;20032;-65
2022/08/04 14:45:10;;;;;;;5.63;3.13;;;;;;;;;;5089679;28;20383;-65
2022/08/04 14:47:45;;;;;;;5.90;3.00;;;;;;;;;;5092700;28;20032;-65
2022/08/04 14:50:20;;;;;;;3.28;2.42;;;;;;;;;;5074393;28;20044;-65
2022/08/04 14:52:47;;;;;;;5.38;3.17;;;;;;;;;;5092094;28;20059;-64
2022/08/04 14:55:24;;;;;;;3.92;2.67;;;;;;;;;;5092391;28;20401;-65
2022/08/04 14:57:52;;;;;;;5.38;3.35;;;;;;;;;;5064744;28;20036;-65
2022/08/04 15:00:39;;;;;;;2.50;2.30;;;;;;;;;;5086692;28;20032;-65
2022/08/04 15:03:08;;;;;;;3.40;2.20;;;;;;;;;;5072058;28;20123;-65
2022/08/04 15:05:36;;;;;;;4.32;2.60;;;;;;;;;;5072114;28;20048;-65
2022/08/04 15:08:24;;;;;;;4.63;2.92;;;;;;;;;;5077339;28;20036;-66
2022/08/04 15:10:58;;;;;;;4.60;2.50;;;;;;;;;;5086373;28;20115;-65
2022/08/04 15:13:26;;;;;;;3.90;2.67;;;;;;;;;;5090643;28;20576;-65
2022/08/04 15:15:54;;;;;;;5.95;4.45;;;;;;;;;;5086523;28;20143;-65
2022/08/04 15:18:35;;;;;;;3.08;2.78;;;;;;;;;;5079844;28;20424;-66
2022/08/04 15:21:03;;;;;;;3.75;2.42;;;;;;;;;;5086337;28;20037;-65
2022/08/04 15:23:31;;;;;;;5.05;3.00;;;;;;;;;;5092343;28;20047;-66
2022/08/04 15:26:07;;;;;;;6.20;2.70;;;;;;;;;;5089512;28;20135;-63
2022/08/04 15:28:35;;;;;;;4.18;2.70;;;;;;;;;;5078039;28;20123;-65
2022/08/04 15:31:04;;;;;;;6.75;3.58;;;;;;;;;;5076651;28;20044;-65